EZY8467 EGKK-LFRB
Flight info
| Callsign | EZY8467 |
|---|---|
| Flight time | N/A |
| Altitude | 27000 |
| Route | IMVUR N63 SAM M195 IBNID/N0379F290 M195 MARUK N621 LELNA DCT BADUR T120 ANLEV |
| Aircraft | A20N/M-SDE2E3FGHIJ1RWXYZ/LB1G1 |
Departure
| Time | N/A |
|---|---|
| Airport | London Gatwick Airport (EGKK) |
Arrival
| Time | 2026-04-23 21:47 |
|---|---|
| Airport | Brest Bretagne airport (LFRB) |
| Time | Latitude | Longitude | Altitude | Speed | Heading |
|---|---|---|---|---|---|
| 2026-04-23 21:30 | 48.66070 | -3.25719 | 16756 ft | 362 kts | 257° |
| 2026-04-23 21:30 | 48.65482 | -3.29394 | 16239 ft | 358 kts | 257° |
| 2026-04-23 21:30 | 48.64896 | -3.33040 | 15725 ft | 354 kts | 257° |
| 2026-04-23 21:30 | 48.64323 | -3.36597 | 15224 ft | 351 kts | 257° |
| 2026-04-23 21:31 | 48.63740 | -3.40208 | 14710 ft | 347 kts | 257° |
| 2026-04-23 21:31 | 48.63177 | -3.43687 | 14210 ft | 344 kts | 257° |
| 2026-04-23 21:31 | 48.62610 | -3.47183 | 13706 ft | 341 kts | 257° |
| 2026-04-23 21:31 | 48.62041 | -3.50686 | 13202 ft | 338 kts | 257° |
| 2026-04-23 21:32 | 48.61489 | -3.54073 | 12718 ft | 334 kts | 257° |
| 2026-04-23 21:32 | 48.60917 | -3.57459 | 12225 ft | 332 kts | 255° |
| 2026-04-23 21:32 | 48.60277 | -3.60791 | 11743 ft | 329 kts | 254° |
| 2026-04-23 21:32 | 48.59621 | -3.64083 | 11262 ft | 326 kts | 254° |
| 2026-04-23 21:33 | 48.59188 | -3.66248 | 10950 ft | 324 kts | 254° |
| 2026-04-23 21:33 | 48.58546 | -3.69492 | 10472 ft | 321 kts | 254° |
| 2026-04-23 21:33 | 48.57717 | -3.73722 | 10205 ft | 306 kts | 254° |
| 2026-04-23 21:33 | 48.57130 | -3.76732 | 10088 ft | 292 kts | 254° |
| 2026-04-23 21:34 | 48.56755 | -3.78654 | 9985 ft | 285 kts | 254° |
| 2026-04-23 21:34 | 48.56200 | -3.81498 | 9664 ft | 280 kts | 254° |
| 2026-04-23 21:34 | 48.55659 | -3.84274 | 9481 ft | 273 kts | 254° |
| 2026-04-23 21:34 | 48.55123 | -3.87016 | 9141 ft | 272 kts | 254° |
| 2026-04-23 21:35 | 48.54408 | -3.90674 | 8655 ft | 271 kts | 254° |
| 2026-04-23 21:35 | 48.54055 | -3.92475 | 8417 ft | 269 kts | 254° |
| 2026-04-23 21:35 | 48.53525 | -3.95174 | 8039 ft | 267 kts | 254° |
| 2026-04-23 21:35 | 48.52998 | -3.97852 | 7685 ft | 265 kts | 254° |
| 2026-04-23 21:36 | 48.51954 | -4.03151 | 6976 ft | 261 kts | 254° |
| 2026-04-23 21:36 | 48.51439 | -4.05760 | 6624 ft | 259 kts | 254° |
| 2026-04-23 21:36 | 48.50926 | -4.08358 | 6270 ft | 258 kts | 254° |
| 2026-04-23 21:37 | 48.50415 | -4.10942 | 5910 ft | 257 kts | 254° |
| 2026-04-23 21:37 | 48.49906 | -4.13507 | 5643 ft | 251 kts | 254° |
| 2026-04-23 21:37 | 48.49412 | -4.15998 | 5387 ft | 247 kts | 254° |
| 2026-04-23 21:37 | 48.48915 | -4.18499 | 4870 ft | 253 kts | 254° |
| 2026-04-23 21:38 | 48.48403 | -4.21077 | 4297 ft | 261 kts | 254° |
| 2026-04-23 21:38 | 48.47879 | -4.23708 | 3720 ft | 262 kts | 254° |
| 2026-04-23 21:38 | 48.47362 | -4.26293 | 3147 ft | 261 kts | 254° |
| 2026-04-23 21:38 | 48.46835 | -4.28930 | 2574 ft | 258 kts | 254° |
| 2026-04-23 21:39 | 48.46332 | -4.31441 | 2262 ft | 246 kts | 254° |
| 2026-04-23 21:39 | 48.45859 | -4.33797 | 2249 ft | 223 kts | 254° |
| 2026-04-23 21:39 | 48.45431 | -4.35924 | 2243 ft | 202 kts | 254° |
| 2026-04-23 21:39 | 48.45031 | -4.37926 | 1985 ft | 203 kts | 254° |
| 2026-04-23 21:40 | 48.44630 | -4.39923 | 1850 ft | 192 kts | 254° |
| 2026-04-23 21:40 | 48.44261 | -4.41741 | 1863 ft | 170 kts | 254° |
| 2026-04-23 21:40 | 48.43939 | -4.43339 | 1836 ft | 149 kts | 254° |
| 2026-04-23 21:40 | 48.43642 | -4.44824 | 1863 ft | 149 kts | 255° |
| 2026-04-23 21:41 | 48.43351 | -4.46282 | 1841 ft | 145 kts | 254° |
| 2026-04-23 21:41 | 48.43054 | -4.47758 | 1842 ft | 148 kts | 255° |
| 2026-04-23 21:41 | 48.42833 | -4.49249 | 1833 ft | 145 kts | 273° |
| 2026-04-23 21:41 | 48.43268 | -4.50610 | 1848 ft | 149 kts | 303° |
| 2026-04-23 21:42 | 48.43528 | -4.52050 | 1843 ft | 147 kts | 261° |
| 2026-04-23 21:42 | 48.43166 | -4.53497 | 1839 ft | 148 kts | 256° |
| 2026-04-23 21:42 | 48.43066 | -4.55019 | 1841 ft | 146 kts | 269° |
| 2026-04-23 21:42 | 48.43315 | -4.56499 | 1843 ft | 147 kts | 288° |
| 2026-04-23 21:43 | 48.43659 | -4.57956 | 1841 ft | 149 kts | 288° |
| 2026-04-23 21:43 | 48.43934 | -4.59451 | 1834 ft | 147 kts | 268° |
| 2026-04-23 21:43 | 48.43486 | -4.60794 | 1847 ft | 151 kts | 221° |
| 2026-04-23 21:43 | 48.42479 | -4.61227 | 1841 ft | 158 kts | 178° |
| 2026-04-23 21:44 | 48.41494 | -4.60452 | 1840 ft | 166 kts | 132° |
| 2026-04-23 21:44 | 48.41140 | -4.58812 | 1844 ft | 170 kts | 86° |
| 2026-04-23 21:44 | 48.41321 | -4.57050 | 1839 ft | 170 kts | 77° |
| 2026-04-23 21:44 | 48.41647 | -4.55358 | 1817 ft | 169 kts | 66° |
| 2026-04-23 21:45 | 48.42075 | -4.53709 | 1626 ft | 165 kts | 68° |
| 2026-04-23 21:45 | 48.42462 | -4.52138 | 1410 ft | 157 kts | 68° |
| 2026-04-23 21:45 | 48.42820 | -4.50600 | 1191 ft | 156 kts | 69° |
| 2026-04-23 21:45 | 48.43164 | -4.49074 | 981 ft | 149 kts | 70° |
| 2026-04-23 21:46 | 48.43511 | -4.47607 | 878 ft | 152 kts | 69° |
| 2026-04-23 21:46 | 48.43824 | -4.46114 | 660 ft | 146 kts | 72° |
| 2026-04-23 21:46 | 48.44131 | -4.44667 | 451 ft | 145 kts | 66° |
| 2026-04-23 21:46 | 48.44466 | -4.43260 | 310 ft | 139 kts | 69° |
| 2026-04-23 21:47 | 48.44758 | -4.41992 | 312 ft | 117 kts | 73° |
| 2026-04-23 21:47 | 48.44902 | -4.41287 | 313 ft | 25 kts | 79° |
| 2026-04-23 21:47 | 48.44932 | -4.41247 | 313 ft | 10 kts | 345° |
| 2026-04-23 21:47 | 48.44908 | -4.41332 | 312 ft | 13 kts | 211° |
| 2026-04-23 21:48 | 48.44806 | -4.41305 | 314 ft | 17 kts | 159° |
| 2026-04-23 21:48 | 48.44718 | -4.41261 | 315 ft | 9 kts | 160° |
| 2026-04-23 21:48 | 48.44661 | -4.41327 | 315 ft | 16 kts | 267° |
| 2026-04-23 21:48 | 48.44694 | -4.41504 | 314 ft | 19 kts | 259° |
| 2026-04-23 21:49 | 48.44639 | -4.41725 | 311 ft | 23 kts | 251° |
| 2026-04-23 21:49 | 48.44618 | -4.41774 | 312 ft | 7 kts | 230° |
| 2026-04-23 21:49 | 48.44590 | -4.41964 | 311 ft | 20 kts | 254° |
| 2026-04-23 21:49 | 48.44510 | -4.41985 | 311 ft | 14 kts | 131° |
| 2026-04-23 21:50 | 48.44476 | -4.41989 | 311 ft | 7 kts | 242° |
| 2026-04-23 21:50 | 48.44434 | -4.42050 | 311 ft | 8 kts | 153° |
| 2026-04-23 21:50 | 48.44415 | -4.42026 | 311 ft | 0 kts | 163° |